sim
Sign-in with your pilot id or email,
or register
Callsign
Passwort

Schedule Details

Flight Number: OEO3478
Departure: Berlin Tegel Airport (EDDT) at 12:25
Arrival: Thessaloniki International Airport (LGTS) at 14:55

Weather Information
Getting current METAR information for EDDT 230650Z 15005KT CAVOK 20/14 Q1027 NOSIG
Getting current METAR information for LGTS 230650Z 28004KT CAVOK 29/19 Q1020 NOSIG

Schedule Frequency

Route Map